createdAt,value
2022-11-26T00:02:21.760Z,8.13
2022-11-26T00:04:49.597Z,7.70
2022-11-26T00:07:25.899Z,7.90
2022-11-26T00:09:58.039Z,7.57
2022-11-26T00:12:28.454Z,7.50
2022-11-26T00:14:55.544Z,6.97
2022-11-26T00:17:22.885Z,8.40
2022-11-26T00:19:49.843Z,8.07
2022-11-26T00:22:43.633Z,7.40
2022-11-26T00:25:20.162Z,7.00
2022-11-26T00:27:47.484Z,7.00
2022-11-26T00:30:17.851Z,7.87
2022-11-26T00:32:44.860Z,8.10
2022-11-26T00:35:12.226Z,7.27
2022-11-26T00:37:58.298Z,7.73
2022-11-26T00:40:31.371Z,7.17
2022-11-26T00:43:01.616Z,7.87
2022-11-26T00:45:31.073Z,6.83
2022-11-26T00:47:58.023Z,6.63
2022-11-26T00:50:27.557Z,7.83
2022-11-26T00:52:56.748Z,7.20
2022-11-26T00:55:33.617Z,7.50
2022-11-26T00:58:00.927Z,7.50
2022-11-26T01:00:31.681Z,7.50
2022-11-26T01:02:59.202Z,6.57
2022-11-26T01:05:33.513Z,7.60
2022-11-26T01:08:25.350Z,7.00
2022-11-26T01:10:52.294Z,6.67
2022-11-26T01:13:20.027Z,7.70
2022-11-26T01:15:47.023Z,6.87
2022-11-26T01:18:18.004Z,7.27
2022-11-26T01:20:45.584Z,6.90
2022-11-26T01:23:14.694Z,7.10
2022-11-26T01:25:42.389Z,7.13
2022-11-26T01:28:16.141Z,7.67
2022-11-26T01:30:43.599Z,7.37
2022-11-26T01:33:10.723Z,7.53
2022-11-26T01:35:38.106Z,7.57
2022-11-26T01:38:05.442Z,8.07
2022-11-26T01:41:13.011Z,7.87
2022-11-26T01:43:42.603Z,8.40
2022-11-26T01:46:16.280Z,8.90
2022-11-26T01:48:43.609Z,8.20
2022-11-26T01:51:12.198Z,10.00
2022-11-26T01:53:44.114Z,9.70
2022-11-26T01:56:25.635Z,9.00
2022-11-26T01:59:09.021Z,9.13
2022-11-26T02:01:36.486Z,9.67
2022-11-26T02:04:16.663Z,9.77
2022-11-26T02:06:45.855Z,10.17
2022-11-26T02:09:13.895Z,10.43
2022-11-26T02:11:41.010Z,10.30
2022-11-26T02:14:19.843Z,10.07
2022-11-26T02:17:26.135Z,10.40
2022-11-26T02:20:33.350Z,11.47
2022-11-26T02:23:37.915Z,11.40
2022-11-26T02:26:35.823Z,11.20
2022-11-26T02:29:10.725Z,10.63
2022-11-26T02:31:56.315Z,10.40
2022-11-26T02:34:48.944Z,11.73
2022-11-26T02:37:23.048Z,13.30
2022-11-26T02:39:51.389Z,12.53
2022-11-26T02:42:32.847Z,11.93
2022-11-26T02:45:08.736Z,12.10
2022-11-26T02:47:40.249Z,13.20
2022-11-26T02:50:15.007Z,13.93
2022-11-26T02:52:42.903Z,13.37
2022-11-26T02:55:12.631Z,12.97
2022-11-26T02:57:47.556Z,12.90
2022-11-26T03:00:16.491Z,13.20
2022-11-26T03:03:02.573Z,15.53
2022-11-26T03:05:35.419Z,13.87
2022-11-26T03:08:05.067Z,14.43
2022-11-26T03:10:33.119Z,14.73
2022-11-26T03:13:00.638Z,13.93
2022-11-26T03:15:28.305Z,14.23
2022-11-26T03:17:55.367Z,14.20
2022-11-26T03:20:22.260Z,13.83
2022-11-26T03:22:49.140Z,15.40
2022-11-26T03:25:16.155Z,14.80
2022-11-26T03:27:43.031Z,15.10
2022-11-26T03:30:10.326Z,16.10
2022-11-26T03:32:37.531Z,15.97
2022-11-26T03:35:05.446Z,14.33
2022-11-26T03:37:32.520Z,16.17
2022-11-26T03:39:59.415Z,14.00
2022-11-26T03:42:26.316Z,15.37
2022-11-26T03:44:53.223Z,16.30
2022-11-26T03:47:20.100Z,14.23
2022-11-26T03:49:47.042Z,15.20
2022-11-26T03:52:13.984Z,14.77
2022-11-26T03:54:40.928Z,16.57
2022-11-26T03:57:07.951Z,14.70
2022-11-26T03:59:34.836Z,15.53
2022-11-26T04:02:01.716Z,14.20
2022-11-26T04:04:28.606Z,15.00
2022-11-26T04:06:55.491Z,14.40
2022-11-26T04:09:22.359Z,14.57
2022-11-26T04:11:49.268Z,15.03
2022-11-26T04:14:16.454Z,15.80
2022-11-26T04:16:43.430Z,14.70
2022-11-26T04:19:10.322Z,13.80
2022-11-26T04:21:37.252Z,13.70
2022-11-26T04:24:04.283Z,13.73
2022-11-26T04:26:31.219Z,14.60
2022-11-26T04:28:58.084Z,12.40
2022-11-26T04:31:25.236Z,13.70
2022-11-26T04:33:52.319Z,14.40
2022-11-26T04:36:19.211Z,13.17
2022-11-26T04:38:46.086Z,14.27
2022-11-26T04:41:13.022Z,12.80
2022-11-26T04:43:39.896Z,12.87
2022-11-26T04:46:06.887Z,14.07
2022-11-26T04:48:33.801Z,13.60
2022-11-26T04:51:00.679Z,13.47
2022-11-26T04:53:27.601Z,12.93
2022-11-26T04:55:54.488Z,12.13
2022-11-26T04:58:21.501Z,11.97
2022-11-26T05:00:51.327Z,11.93
2022-11-26T05:03:19.200Z,12.30
2022-11-26T05:05:47.089Z,13.80
2022-11-26T05:08:14.074Z,12.30
2022-11-26T05:10:40.981Z,13.20
2022-11-26T05:13:07.862Z,12.10
2022-11-26T05:15:34.747Z,11.33
2022-11-26T05:18:01.605Z,12.37
2022-11-26T05:20:28.499Z,12.00
2022-11-26T05:22:55.388Z,13.23
2022-11-26T05:25:22.291Z,13.50
2022-11-26T05:27:49.183Z,12.83
2022-11-26T05:30:16.317Z,13.63
2022-11-26T05:32:43.207Z,12.47
2022-11-26T05:35:10.590Z,11.10
2022-11-26T05:37:37.640Z,12.63
2022-11-26T05:40:05.893Z,14.13
2022-11-26T05:42:32.930Z,12.30
2022-11-26T05:44:59.980Z,12.80
2022-11-26T05:47:26.855Z,13.50
2022-11-26T05:49:53.999Z,13.67
2022-11-26T05:52:21.618Z,14.23
2022-11-26T05:54:48.575Z,12.70
2022-11-26T05:57:15.522Z,14.30
2022-11-26T05:59:42.644Z,14.77
2022-11-26T06:02:09.725Z,14.97
2022-11-26T06:04:36.946Z,14.40
2022-11-26T06:07:04.073Z,15.87
2022-11-26T06:09:30.954Z,13.93
2022-11-26T06:11:57.861Z,14.83
2022-11-26T06:14:24.738Z,13.07
2022-11-26T06:16:51.713Z,15.20
2022-11-26T06:19:18.628Z,15.20
2022-11-26T06:21:45.527Z,14.63
2022-11-26T06:24:12.410Z,14.77
2022-11-26T06:26:39.281Z,16.50
2022-11-26T06:29:06.295Z,16.73
2022-11-26T06:31:33.671Z,14.40
2022-11-26T06:34:00.637Z,16.77
2022-11-26T06:36:27.671Z,15.23
2022-11-26T06:38:54.542Z,15.80
2022-11-26T06:41:21.591Z,14.80
2022-11-26T06:43:48.474Z,14.50
2022-11-26T06:46:15.438Z,15.50
2022-11-26T06:48:42.395Z,14.40
2022-11-26T06:51:16.327Z,15.40
2022-11-26T06:53:43.592Z,15.80
2022-11-26T06:56:18.104Z,15.03
2022-11-26T06:58:47.285Z,14.87
2022-11-26T07:01:26.404Z,13.70
2022-11-26T07:03:55.024Z,15.20
2022-11-26T07:06:31.940Z,14.57
2022-11-26T07:09:04.324Z,16.30
2022-11-26T07:11:31.227Z,15.93
2022-11-26T07:13:58.285Z,16.40
2022-11-26T07:16:25.609Z,17.07
2022-11-26T07:19:02.166Z,16.70
2022-11-26T07:21:30.266Z,15.60
2022-11-26T07:23:57.260Z,15.13
2022-11-26T07:26:24.179Z,15.77
2022-11-26T07:28:51.773Z,16.97
2022-11-26T07:31:21.982Z,16.90
2022-11-26T07:33:49.466Z,16.37
2022-11-26T07:36:20.983Z,16.07
2022-11-26T07:38:48.064Z,16.93
2022-11-26T07:41:19.261Z,15.03
2022-11-26T07:43:46.938Z,15.77
2022-11-26T07:46:18.561Z,16.13
2022-11-26T07:48:46.005Z,17.00
2022-11-26T07:51:27.337Z,15.53
2022-11-26T07:53:56.003Z,16.50
2022-11-26T07:56:22.940Z,16.53
2022-11-26T07:58:49.878Z,18.80
2022-11-26T08:01:29.742Z,19.30
2022-11-26T08:03:58.475Z,19.30
2022-11-26T08:06:29.245Z,18.10
2022-11-26T08:08:58.652Z,20.40
2022-11-26T08:11:29.719Z,18.80
2022-11-26T08:14:00.480Z,18.40
2022-11-26T08:16:29.060Z,17.73
2022-11-26T08:18:59.503Z,18.63
2022-11-26T08:21:26.957Z,17.60
2022-11-26T08:23:54.599Z,18.30
2022-11-26T08:26:29.332Z,18.00
2022-11-26T08:29:01.008Z,18.07
2022-11-26T08:31:28.738Z,20.40
2022-11-26T08:34:00.581Z,19.37
2022-11-26T08:36:29.467Z,17.80
2022-11-26T08:38:57.111Z,18.80
2022-11-26T08:41:24.322Z,15.90
2022-11-26T08:44:06.029Z,15.80
2022-11-26T08:46:33.893Z,15.70
2022-11-26T08:49:00.935Z,15.47
2022-11-26T08:51:27.819Z,14.20
2022-11-26T08:53:54.687Z,12.97
2022-11-26T08:56:21.848Z,14.50
2022-11-26T08:58:49.257Z,13.90
2022-11-26T09:01:24.736Z,11.83
2022-11-26T09:03:54.141Z,11.87
2022-11-26T09:06:23.139Z,11.73
2022-11-26T09:09:09.062Z,11.73
2022-11-26T09:11:41.395Z,10.37
2022-11-26T09:14:09.361Z,10.20
2022-11-26T09:16:36.382Z,10.60
2022-11-26T09:19:06.199Z,10.97
2022-11-26T09:21:35.346Z,9.80
2022-11-26T09:24:02.994Z,9.73
2022-11-26T09:26:31.960Z,9.23
2022-11-26T09:28:59.305Z,9.67
2022-11-26T09:31:26.655Z,9.40
2022-11-26T09:33:58.642Z,8.17
2022-11-26T09:36:26.214Z,10.23
2022-11-26T09:38:57.539Z,10.50
2022-11-26T09:41:52.113Z,9.83
2022-11-26T09:44:37.115Z,9.07
2022-11-26T09:47:22.414Z,9.60
2022-11-26T09:50:07.130Z,8.50
2022-11-26T09:53:13.428Z,9.53
2022-11-26T09:55:45.347Z,9.27
2022-11-26T09:58:33.155Z,8.20
2022-11-26T10:01:01.190Z,8.30
2022-11-26T10:03:34.208Z,8.70
2022-11-26T10:06:24.163Z,8.40
2022-11-26T10:09:20.590Z,8.30
2022-11-26T10:12:24.955Z,6.70
2022-11-26T10:15:28.782Z,7.60
2022-11-26T10:18:28.364Z,7.37
2022-11-26T10:21:11.546Z,6.87
2022-11-26T10:24:14.739Z,7.17
2022-11-26T10:26:41.923Z,6.00
2022-11-26T10:29:38.515Z,7.23
2022-11-26T10:32:40.829Z,6.40
2022-11-26T10:35:15.330Z,7.10
2022-11-26T10:37:42.483Z,6.90
2022-11-26T10:40:29.347Z,8.40
2022-11-26T10:43:08.415Z,7.20
2022-11-26T10:45:42.492Z,8.10
2022-11-26T10:48:30.615Z,7.77
2022-11-26T10:51:30.173Z,7.43
2022-11-26T10:54:00.451Z,7.70
2022-11-26T10:56:42.296Z,8.27
2022-11-26T10:59:40.660Z,7.00
2022-11-26T11:02:20.120Z,7.50
2022-11-26T11:04:51.791Z,6.43
2022-11-26T11:07:38.339Z,7.27
2022-11-26T11:10:08.152Z,7.00
2022-11-26T11:12:43.559Z,6.50
2022-11-26T11:15:26.807Z,7.33
2022-11-26T11:18:04.123Z,6.57
2022-11-26T11:20:35.409Z,6.60
2022-11-26T11:23:19.305Z,6.17
2022-11-26T11:26:04.143Z,6.53
2022-11-26T11:28:34.316Z,5.97
2022-11-26T11:31:11.211Z,7.03
2022-11-26T11:33:38.333Z,5.57
2022-11-26T11:36:14.217Z,5.07
2022-11-26T11:38:54.296Z,5.40
2022-11-26T11:41:29.110Z,5.23
2022-11-26T11:44:05.222Z,5.77
2022-11-26T11:47:17.919Z,6.60
2022-11-26T11:50:23.400Z,6.23
2022-11-26T11:53:36.355Z,6.10
2022-11-26T11:56:25.024Z,6.63
2022-11-26T11:59:19.466Z,7.33
2022-11-26T12:01:52.965Z,6.93
2022-11-26T12:04:56.631Z,7.33
2022-11-26T12:07:38.751Z,6.10
2022-11-26T12:10:16.671Z,7.40
2022-11-26T12:12:53.427Z,7.40
2022-11-26T12:15:55.516Z,7.57
2022-11-26T12:18:43.969Z,8.07
2022-11-26T12:21:16.287Z,7.63
2022-11-26T12:23:58.570Z,7.10
2022-11-26T12:26:37.175Z,8.13
2022-11-26T12:29:18.583Z,7.60
2022-11-26T12:31:51.544Z,8.27
2022-11-26T12:34:33.714Z,7.83
2022-11-26T12:37:24.299Z,7.90
2022-11-26T12:40:00.429Z,7.33
2022-11-26T12:42:45.613Z,7.10
2022-11-26T12:45:42.732Z,7.50
2022-11-26T12:48:47.982Z,6.97
2022-11-26T12:51:29.883Z,9.23
2022-11-26T12:54:19.981Z,6.47
2022-11-26T12:57:12.675Z,6.93
2022-11-26T13:00:06.266Z,9.00
2022-11-26T13:02:37.897Z,7.80
2022-11-26T13:05:05.519Z,6.50
2022-11-26T13:08:03.370Z,7.20
2022-11-26T13:11:05.924Z,5.80
2022-11-26T13:14:05.031Z,6.07
2022-11-26T13:16:47.328Z,5.27
2022-11-26T13:19:27.345Z,5.70
2022-11-26T13:22:32.155Z,6.43
2022-11-26T13:25:35.121Z,5.43
2022-11-26T13:28:34.455Z,6.00
2022-11-26T13:31:47.962Z,6.50
2022-11-26T13:34:44.465Z,6.70
2022-11-26T13:37:48.652Z,6.37
2022-11-26T13:40:58.895Z,6.00
2022-11-26T13:44:12.451Z,6.23
2022-11-26T13:46:47.062Z,7.80
2022-11-26T13:49:43.160Z,7.13
2022-11-26T13:52:24.444Z,8.27
2022-11-26T13:55:07.514Z,6.27
2022-11-26T13:57:46.700Z,13.40
2022-11-26T14:00:29.344Z,11.07
2022-11-26T14:02:57.394Z,10.73
2022-11-26T14:05:50.263Z,12.10
2022-11-26T14:08:41.409Z,10.07
2022-11-26T14:11:09.341Z,11.03
2022-11-26T14:13:36.994Z,11.97
2022-11-26T14:16:09.052Z,12.60
2022-11-26T14:18:53.167Z,11.77
2022-11-26T14:21:21.498Z,11.67
2022-11-26T14:23:55.830Z,10.37
2022-11-26T14:26:34.593Z,12.17
2022-11-26T14:29:09.845Z,12.23
2022-11-26T14:31:49.529Z,12.87
2022-11-26T14:34:27.310Z,12.77
2022-11-26T14:37:02.284Z,12.20
2022-11-26T14:39:29.652Z,11.63
2022-11-26T14:42:04.075Z,10.70
2022-11-26T14:44:33.567Z,11.37
2022-11-26T14:47:20.837Z,10.60
2022-11-26T14:49:56.258Z,10.90
2022-11-26T14:52:39.448Z,9.17
2022-11-26T14:55:17.942Z,10.67
2022-11-26T14:57:51.525Z,11.00
2022-11-26T15:00:27.089Z,11.20
2022-11-26T15:02:54.734Z,11.93
2022-11-26T15:05:29.158Z,10.40
2022-11-26T15:08:14.074Z,9.27
2022-11-26T15:10:54.027Z,10.17
2022-11-26T15:13:36.367Z,10.20
2022-11-26T15:16:36.363Z,10.53
2022-11-26T15:19:05.719Z,8.90
2022-11-26T15:21:35.891Z,9.37
2022-11-26T15:24:08.394Z,9.30
2022-11-26T15:26:36.837Z,12.13
2022-11-26T15:29:41.406Z,13.20
2022-11-26T15:32:30.479Z,10.83
2022-11-26T15:35:03.603Z,10.83
2022-11-26T15:37:30.675Z,11.33
2022-11-26T15:40:25.090Z,9.67
2022-11-26T15:43:03.139Z,10.53
2022-11-26T15:45:41.236Z,12.00
2022-11-26T15:48:50.509Z,13.17
2022-11-26T15:51:32.131Z,13.17
2022-11-26T15:54:03.637Z,13.60
2022-11-26T15:56:37.088Z,13.00
2022-11-26T15:59:15.388Z,29.23
2022-11-26T16:01:46.361Z,20.27
2022-11-26T16:04:43.094Z,17.50
2022-11-26T16:07:17.403Z,19.37
2022-11-26T16:09:45.763Z,18.30
2022-11-26T16:12:35.308Z,15.73
2022-11-26T16:15:17.929Z,14.03
2022-11-26T16:17:45.608Z,17.30
2022-11-26T16:20:25.454Z,16.50
2022-11-26T16:22:57.979Z,18.10
2022-11-26T16:25:28.331Z,16.87
2022-11-26T16:28:10.381Z,15.80
2022-11-26T16:30:43.271Z,15.47
2022-11-26T16:33:10.787Z,12.97
2022-11-26T16:35:46.568Z,13.83
2022-11-26T16:38:25.259Z,13.23
2022-11-26T16:40:52.362Z,12.10
2022-11-26T16:43:19.641Z,11.87
2022-11-26T16:45:48.623Z,12.93
2022-11-26T16:48:27.580Z,11.80
2022-11-26T16:50:56.301Z,12.23
2022-11-26T16:53:23.673Z,12.20
2022-11-26T16:55:52.144Z,12.83
2022-11-26T16:58:37.905Z,12.77
2022-11-26T17:01:04.858Z,12.00
2022-11-26T17:03:34.889Z,12.90
2022-11-26T17:06:16.214Z,14.90
2022-11-26T17:08:49.126Z,13.60
2022-11-26T17:11:16.794Z,12.40
2022-11-26T17:13:43.674Z,12.07
2022-11-26T17:16:15.173Z,12.13
2022-11-26T17:18:42.192Z,24.57
2022-11-26T17:21:09.185Z,66.20
2022-11-26T17:23:36.243Z,43.40
2022-11-26T17:26:11.633Z,26.00
2022-11-26T17:28:38.518Z,20.10
2022-11-26T17:31:05.504Z,18.97
2022-11-26T17:33:32.443Z,18.63
2022-11-26T17:35:59.340Z,23.87
2022-11-26T17:38:26.245Z,23.23
2022-11-26T17:40:53.144Z,16.80
2022-11-26T17:43:20.020Z,17.00
2022-11-26T17:45:46.965Z,13.17
2022-11-26T17:48:14.267Z,15.63
2022-11-26T17:50:41.572Z,14.40
2022-11-26T17:53:08.696Z,15.30
2022-11-26T17:55:35.662Z,17.10
2022-11-26T17:58:02.535Z,13.03
2022-11-26T18:00:30.189Z,13.53
2022-11-26T18:02:57.932Z,16.07
2022-11-26T18:05:25.389Z,13.20
2022-11-26T18:07:52.381Z,13.87
2022-11-26T18:10:22.212Z,13.87
2022-11-26T18:12:53.152Z,17.43
2022-11-26T18:15:23.744Z,14.37
2022-11-26T18:17:53.625Z,14.53
2022-11-26T18:20:24.376Z,16.07
2022-11-26T18:22:54.092Z,15.10
2022-11-26T18:25:21.605Z,13.80
2022-11-26T18:27:48.561Z,14.70
2022-11-26T18:30:17.060Z,14.53
2022-11-26T18:32:44.512Z,14.03
2022-11-26T18:35:11.634Z,15.30
2022-11-26T18:37:40.095Z,16.07
2022-11-26T18:40:11.422Z,16.73
2022-11-26T18:42:38.661Z,15.87
2022-11-26T18:45:09.555Z,14.57
2022-11-26T18:47:36.427Z,16.20
2022-11-26T18:50:04.088Z,17.20
2022-11-26T18:52:30.958Z,14.97
2022-11-26T18:54:58.056Z,15.83
2022-11-26T18:57:24.939Z,15.53
2022-11-26T18:59:51.811Z,14.70
2022-11-26T19:02:18.773Z,13.63
2022-11-26T19:04:46.153Z,14.43
2022-11-26T19:07:14.190Z,13.47
2022-11-26T19:09:41.696Z,16.70
2022-11-26T19:12:08.991Z,20.00
2022-11-26T19:14:35.990Z,15.37
2022-11-26T19:17:02.906Z,15.47
2022-11-26T19:19:29.987Z,15.07
2022-11-26T19:22:01.118Z,16.90
2022-11-26T19:24:29.068Z,17.30
2022-11-26T19:26:56.139Z,16.77
2022-11-26T19:29:23.125Z,14.13
2022-11-26T19:31:49.996Z,15.10
2022-11-26T19:34:17.234Z,15.87
2022-11-26T19:36:48.275Z,15.40
2022-11-26T19:39:16.471Z,13.63
2022-11-26T19:41:43.661Z,13.23
2022-11-26T19:44:10.584Z,15.17
2022-11-26T19:46:41.113Z,14.17
2022-11-26T19:49:12.191Z,12.70
2022-11-26T19:51:39.308Z,12.83
2022-11-26T19:54:07.160Z,13.97
2022-11-26T19:56:34.575Z,14.87
2022-11-26T19:59:02.320Z,14.67
2022-11-26T20:01:32.679Z,14.03
2022-11-26T20:04:03.305Z,15.63
2022-11-26T20:06:31.989Z,14.77
2022-11-26T20:08:59.230Z,12.67
2022-11-26T20:11:28.154Z,15.03
2022-11-26T20:13:56.297Z,13.63
2022-11-26T20:16:28.088Z,15.10
2022-11-26T20:18:55.855Z,19.40
2022-11-26T20:21:27.047Z,17.23
2022-11-26T20:23:57.284Z,13.40
2022-11-26T20:26:29.173Z,13.97
2022-11-26T20:29:00.268Z,12.83
2022-11-26T20:31:27.340Z,13.17
2022-11-26T20:33:55.475Z,12.40
2022-11-26T20:36:23.574Z,12.83
2022-11-26T20:38:55.443Z,12.40
2022-11-26T20:41:24.146Z,11.80
2022-11-26T20:43:58.245Z,14.13
2022-11-26T20:46:27.490Z,14.43
2022-11-26T20:48:54.773Z,14.27
2022-11-26T20:51:22.607Z,14.87
2022-11-26T20:53:51.116Z,13.97
2022-11-26T20:56:20.850Z,13.83
2022-11-26T20:58:48.232Z,12.50
2022-11-26T21:01:21.597Z,14.03
2022-11-26T21:03:49.543Z,14.30
2022-11-26T21:06:18.829Z,15.33
2022-11-26T21:08:46.143Z,14.40
2022-11-26T21:11:15.180Z,16.70
2022-11-26T21:13:42.862Z,14.37
2022-11-26T21:16:16.507Z,14.40
2022-11-26T21:18:44.144Z,14.00
2022-11-26T21:21:16.148Z,13.60
2022-11-26T21:23:44.774Z,12.63
2022-11-26T21:26:19.635Z,12.10
2022-11-26T21:28:55.995Z,12.73
2022-11-26T21:31:24.043Z,13.80
2022-11-26T21:34:02.626Z,14.27
2022-11-26T21:36:31.830Z,13.77
2022-11-26T21:38:58.784Z,13.10
2022-11-26T21:41:26.376Z,11.23
2022-11-26T21:43:53.820Z,11.70
2022-11-26T21:46:26.694Z,14.57
2022-11-26T21:48:55.183Z,14.70
2022-11-26T21:51:24.053Z,11.63
2022-11-26T21:53:53.304Z,12.07
2022-11-26T21:56:26.275Z,12.17
2022-11-26T21:58:53.520Z,12.30
2022-11-26T22:01:26.154Z,13.37
2022-11-26T22:03:56.618Z,12.60
2022-11-26T22:06:24.241Z,13.13
2022-11-26T22:08:52.230Z,12.70
2022-11-26T22:11:25.779Z,13.40
2022-11-26T22:13:53.420Z,11.30
2022-11-26T22:16:22.782Z,13.50
2022-11-26T22:18:51.212Z,12.67
2022-11-26T22:21:24.666Z,13.20
2022-11-26T22:23:52.736Z,11.60
2022-11-26T22:26:20.518Z,11.13
2022-11-26T22:28:49.602Z,11.67
2022-11-26T22:31:23.162Z,12.30
2022-11-26T22:33:54.119Z,12.60
2022-11-26T22:36:21.031Z,11.70
2022-11-26T22:38:47.894Z,11.27
2022-11-26T22:41:15.146Z,12.83
2022-11-26T22:43:42.539Z,12.47
2022-11-26T22:46:23.591Z,12.10
2022-11-26T22:48:55.966Z,10.63
2022-11-26T22:51:24.436Z,12.03
2022-11-26T22:54:01.568Z,11.50
2022-11-26T22:56:29.186Z,12.50
2022-11-26T22:58:56.494Z,11.70
2022-11-26T23:01:30.615Z,12.97
2022-11-26T23:03:59.768Z,12.33
2022-11-26T23:06:29.395Z,12.40
2022-11-26T23:08:58.226Z,12.10
2022-11-26T23:11:38.295Z,13.03
2022-11-26T23:14:07.446Z,13.00
2022-11-26T23:16:36.630Z,13.07
2022-11-26T23:19:04.423Z,12.67
2022-11-26T23:21:35.303Z,11.77
2022-11-26T23:24:02.229Z,13.00
2022-11-26T23:26:32.890Z,11.80
2022-11-26T23:29:01.660Z,12.40
2022-11-26T23:31:31.615Z,13.27
2022-11-26T23:33:59.483Z,13.33
2022-11-26T23:36:27.996Z,12.23
2022-11-26T23:38:55.391Z,13.00
2022-11-26T23:41:22.401Z,13.80
2022-11-26T23:43:49.540Z,12.50
2022-11-26T23:46:28.394Z,12.80
2022-11-26T23:48:55.634Z,13.33
2022-11-26T23:51:30.997Z,11.57
2022-11-26T23:53:58.232Z,11.57
2022-11-26T23:56:29.541Z,14.00
2022-11-26T23:59:01.608Z,12.03
